Aviation Digital Data Service (ADDS)

Output produced by METARs form (0019 UTC 17 July 2019)
found at http://www.aviationweather.gov/metar/data/
 
KABQ 162348Z 1700/1724 12015G25KT P6SM VCTS BKN090CB 
     TEMPO 1700/1701 VRB15G30KT 6SM -SHRA OVC080 
     FM170200 15007KT P6SM BKN120 
     FM170600 12005KT P6SM SCT100 
     FM171900 29010G18KT P6SM SCT120
       
KABY 162320Z 1700/1724 25003KT P6SM SCT250 
     FM171800 24005KT P6SM BKN050 
     PROB30 1718/1722 P6SM TSRA BKN050CB
       
KACT 162335Z 1700/1724 18012KT P6SM FEW050 
     FM171100 19010KT P6SM BKN022 
     TEMPO 1712/1716 BKN018 
     FM171600 19012KT P6SM SCT050
       
KACV 162327Z 1700/1724 33012KT P6SM FEW007 BKN020 
     FM170300 33008KT 6SM BR SCT003 OVC007 
     FM170500 35007KT 4SM BR BKN003 
     FM170800 36003KT 1SM BR OVC002 
     FM171600 32007KT 5SM BR SCT003 OVC006 
     FM171900 33011KT P6SM SCT008 OVC015
       
TAF AMD KADW 162345Z 1623/1723 18009KT 9000 -SHRA OVC040 QNH2996INS 
     BECMG 1701/1702 18006KT 9999 NSW OVC130 QNH2986INS 
     TEMPO 1718/1721 21025G35KT 6000 -TSRA BKN060CB TX30/1623Z TN27/1709Z
       
KAEG 162358Z 1700/1724 26015G25KT P6SM VCTS BKN090CB 
     TEMPO 1700/1702 VRB20G30KT 6SM -SHRA OVC070 
     FM170200 18009KT P6SM BKN100 
     FM170700 VRB05KT P6SM SCT100 
     FM171700 27007KT P6SM SCT100 
     FM172000 29012G22KT P6SM SCT120
       
KAEX 162057Z 1621/1718 20011KT P6SM VCTS SCT035CB BKN050 
     TEMPO 1621/1623 2SM TSRA BKN035CB 
     FM170200 17005KT P6SM FEW030 BKN250 
     FM170900 17005KT 6SM BR SCT012 BKN025
       
TAF AMD KAFF 162300Z 1623/1801 05009KT 9999 VCTS SCT080CB BKN120 QNH3006INS WND
360V140 
     TEMPO 1623/1624 VRB25G45KT -TSRA DRY MICROBURST CONDTIONS EXIST 
     BECMG 1700/1701 22009KT 9999 NSW SCT100 QNH3006INS 
     BECMG 1709/1710 02009KT 9999 FEW100 WS010/27035KT 520103 QNH3012INS WND
250V090 
     BECMG 1714/1715 25015G25KT 9999 FEW100 520004 QNH3008INS 
     BECMG 1717/1718 21012KT 9999 SCT120 510004 QNH3006INS WND 160V240 
     BECMG 1719/1720 21012KT 9999 VCSH SCT120 510004 QNH3004INS WND 160V240 
     TEMPO 1720/1723 VRB30G50KT DRY MICROBURST CONDITIONS EXIST TX34/1719Z
TN12/1711Z LAST NO AMDS AFT 1623 NEXT 1711
       
KAFW 162335Z 1700/1724 18012KT P6SM FEW060 SCT250
       
KAGC 162320Z 1700/1724 18003KT P6SM SCT150 
     FM171400 20006KT P6SM VCSH BKN050 
     FM171800 21008KT P6SM -SHRA VCTS BKN025CB
       
KAGS 162321Z 1700/1724 VRB03KT P6SM SCT250 
     TEMPO 1708/1712 3SM BR 
     FM171500 27009KT P6SM SCT050
       
KAHN 162331Z 1700/1724 24005KT P6SM SCT250 
     FM170100 VRB03KT P6SM SCT250 
     FM171500 26006KT P6SM FEW035 SCT250 
     FM171800 25010KT P6SM SCT050 SCT250
       
KAIA 162320Z 1700/1724 14013KT P6SM VCTS BKN060CB 
     TEMPO 1700/1703 VRB30G45KT 3SM TSRAGR OVC035CB 
     FM170300 14013KT P6SM BKN080 
     FM170800 21009KT P6SM SKC 
     FM171500 35011KT P6SM SCT060
       
KALB 162338Z 1700/1724 19006KT P6SM SCT060 SCT090 
     FM170200 20005KT P6SM SCT060 BKN100 
     FM171000 21007KT P6SM OVC050 
     TEMPO 1711/1715 3SM -SHRA OVC025 
     FM171500 19008KT P6SM OVC025 
     TEMPO 1715/1719 3SM SHRA OVC015 
     FM171900 21005KT 3SM SHRA OVC025 
     PROB30 1719/1724 1 1/2SM -TSRA OVC015CB
       
KALS 162321Z 1700/1724 24011KT P6SM VCTS FEW080CB SCT150 
     TEMPO 1700/1701 VRB20G35KT BKN080CB 
     FM170100 29009KT P6SM SCT080 BKN150 
     FM170600 VRB06KT P6SM SCT200 
     FM171600 24008KT P6SM FEW120 SCT200
       
KALW 162322Z 1700/1724 24011KT P6SM FEW070 
     FM170500 19010KT P6SM SCT200 
     FM171600 23014G22KT P6SM SCT070 BKN120
       
KAMA 170010Z 1700/1724 02019KT P6SM VCTS BKN080CB 
     FM170200 18019KT P6SM SCT080 
     FM170400 20010KT P6SM SCT080 
     FM171400 19018G28KT P6SM FEW120
       
KANB 162334Z 1700/1724 22003KT P6SM FEW050 SCT250 
     FM171500 25010KT P6SM BKN100 BKN250 
     PROB30 1717/1722 4SM TSRA BKN050CB
       
KAND 162338Z 1700/1724 24005KT P6SM SCT250 
     FM171400 25006KT P6SM SCT050 
     FM171700 24010G16KT P6SM SCT060 
     FM172300 26009KT P6SM BKN060
       
KAOO 162352Z 1700/1724 25006KT P6SM VCSH SCT045 SCT100 
     FM170200 20004KT P6SM VCSH BKN100 
     FM170600 20004KT P6SM BKN100 
     FM171500 23011G17KT P6SM BKN030 BKN050 
     FM171800 24010G20KT 4SM SHRA VCTS BKN018 OVC040CB
       
KAPA 162336Z 1700/1724 16012G20KT P6SM FEW100 SCT140 
     FM170100 26010KT P6SM FEW100 SCT140 
     FM170500 23009KT P6SM SKC 
     FM172000 27010KT P6SM SCT100
       
KAPF 162331Z 1700/1724 VRB05KT P6SM VCTS SCT020CB BKN050 
     FM170100 VRB03KT P6SM FEW025 SCT250 
     FM171500 11005KT P6SM FEW025 SCT250 
     FM171800 25010KT P6SM VCTS SCT030CB BKN050
       
KAPN 162341Z 1700/1724 VRB03KT P6SM SCT045 
     FM170300 00000KT P6SM BKN120 
     FM171100 VRB03KT P6SM SCT250 
     FM171500 05005KT P6SM SCT200
       
KARA 161734Z 1618/1718 20010KT P6SM VCSH SCT020 BKN040 
     TEMPO 1618/1620 BKN020 
     FM170200 18005KT P6SM FEW025 SCT250 
     FM171400 20007KT P6SM SCT025 SCT060
       
KASD 162333Z 1700/1724 17008KT P6SM FEW045 
     FM170500 VRB03KT P6SM FEW060 FEW250 
     FM171800 22005KT P6SM FEW045 FEW110 
     FM172100 19005KT P6SM FEW060 FEW110
       
KASE 162325Z 1700/1724 26007KT P6SM SCT110 
     FM170200 21008KT P6SM SKC 
     FM171500 24006KT P6SM SKC 
     FM171700 26011G20KT P6SM FEW120 FEW250
       
KASN 162334Z 1700/1724 22003KT P6SM FEW050 SCT250 
     FM171500 25010KT P6SM BKN100 BKN250 
     PROB30 1717/1722 4SM TSRA BKN050CB
       
KAST 162320Z 1700/1724 27010KT P6SM BKN020 BKN040 
     FM170400 25004KT P6SM OVC020 
     FM170900 21005KT 6SM -DZ BR OVC015 
     FM171400 21008G16KT 4SM -RA BR OVC009
       
KATW 162331Z 1700/1724 34005KT P6SM FEW045 BKN250 
     FM170400 01004KT P6SM VCTS SCT040CB BKN120 
     FM171100 04004KT P6SM SCT050 BKN200 
     FM171500 07007KT P6SM SCT040 BKN250
       
KATL 162331Z 1700/1806 22010KT P6SM SCT060 SCT250 
     FM170200 21004KT P6SM SCT250 
     FM171500 26008KT P6SM FEW035 SCT250 
     FM171800 25012KT P6SM SCT050 SCT250 
     FM180200 26005KT P6SM FEW070 SCT250
       
KATY 162331Z 1700/1724 VRB05KT P6SM SCT250 
     FM170600 09006KT P6SM VCTS BKN050CB 
     TEMPO 1709/1712 2SM -TSRA OVC025CB 
     FM171500 16009KT P6SM OVC025 
     FM172200 18007KT P6SM VCTS BKN050CB
       
KAUG 162320Z 1700/1724 18006KT P6SM BKN100 
     FM171400 27005KT 6SM -SHRA OVC030 
     FM171800 29006KT P6SM OVC040
       
KAUS 162320Z 1700/1806 17011KT P6SM FEW040 SCT250 
     FM170900 18006KT P6SM BKN025 
     FM171100 18007KT P6SM BKN012 
     FM171500 18012G19KT P6SM SCT025 BKN050
       
KAUW 162331Z 1700/1724 28005KT P6SM SCT040 BKN250 
     FM170200 VRB03KT P6SM VCTS SCT035CB BKN120 
     FM170800 07003KT P6SM SCT040 BKN120 
     FM171400 13007KT P6SM SCT035 BKN250
       
KAVL 162338Z 1700/1724 00000KT P6SM FEW040 BKN250 
     FM171000 VRB02KT 5SM BR SCT200 
     FM171300 VRB02KT P6SM VCSH SCT030 BKN200 
     FM171700 23007KT P6SM SCT040 
     PROB30 1717/1723 4SM TSRA BKN025CB 
     FM172300 25005KT P6SM BKN050
       
KAVP 162321Z 1700/1724 24008KT P6SM SCT050 BKN100 
     TEMPO 1700/1704 3SM TSRA BR OVC040CB 
     FM171500 24008KT P6SM BKN050 
     FM171900 25007KT 5SM -SHRA OVC035
       
KAXN 162338Z 1700/1724 36005KT P6SM FEW120 
     FM171100 13005KT 6SM -SHRA BR VCTS BKN050CB OVC100 
     FM171400 15009KT P6SM BKN100 
     FM171800 15015G22KT P6SM SCT040 BKN100 
     PROB30 1718/1724 3SM TSRA BR OVC035CB
       
KAZO 162336Z 1700/1724 01005KT P6SM VCSH FEW025 BKN035 
     FM170600 00000KT 6SM BR OVC025 
     FM170800 00000KT 2SM BR OVC003 
     FM171500 35003KT 4SM BR OVC007 
     FM171600 35004KT P6SM OVC015 
     FM171800 36006KT P6SM BKN050